Main page
METAR-TAF:

METAR-TAF

Airports :

Florence, Italy

Florence Airport

latitude: 43-48N, longitude: 011-12E, elevation: 40 m

Current weather observation

The report was made 41 minutes ago, at 21:50 UTC
Wind 2 kt from variable directions
Temperature 25°C
Humidity 50%
Pressure 1011 hPa
Visibility 10 km or more
no clouds below 1500 m and no cumulonimbus

METAR: LIRQ 262150Z VRB02KT CAVOK 25/14 Q1011

Time: 00:31 (22:31 UTC)

Forecast

The report was made 5 hours and 31 minutes ago, at 17:00 UTC
Forecast valid from 26 at 18 UTC to 27 at 18 UTC
Wind 4 kt from variable directions
Visibility 10 km or more
Scattered clouds at a height of 3000 ft
Becoming
from 27 at 08 UTC to 27 at 10 UTC
Wind 10 kt from the Southwest

TAF: LIRQ 261700Z 2618/2718 VRB04KT 9999 SCT030 BECMG 2708/2710 22010KT

Weather observations and forecasts of more than 4000 airports (METAR and TAF reports).

The available stations are represented by yellow and red dots on the map.

Hover mouse over dot to see the name of the station.

Then click to see weather observations and forecasts.

To change the map : click on the green buttons with a black cross to zoom in, on the green button with a dash to zoom out, or on the green arrows for adjacent maps.


METAR-TAF: